createdAt,value
2022-09-09T00:01:54.094Z,12.90
2022-09-09T00:04:38.294Z,12.90
2022-09-09T00:07:14.517Z,12.91
2022-09-09T00:09:59.566Z,12.89
2022-09-09T00:13:01.653Z,12.89
2022-09-09T00:15:53.820Z,12.92
2022-09-09T00:18:20.414Z,12.88
2022-09-09T00:21:16.686Z,12.97
2022-09-09T00:24:05.815Z,12.90
2022-09-09T00:26:43.308Z,12.83
2022-09-09T00:29:31.169Z,12.91
2022-09-09T00:32:19.850Z,12.90
2022-09-09T00:34:55.412Z,12.87
2022-09-09T00:37:26.906Z,12.81
2022-09-09T00:39:59.612Z,12.80
2022-09-09T00:42:36.924Z,12.73
2022-09-09T00:45:25.085Z,12.66
2022-09-09T00:47:53.233Z,12.69
2022-09-09T00:50:25.994Z,12.65
2022-09-09T00:53:31.202Z,12.69
2022-09-09T00:56:09.251Z,12.70
2022-09-09T00:58:37.335Z,12.68
2022-09-09T01:01:04.590Z,12.76
2022-09-09T01:03:34.145Z,12.77
2022-09-09T01:06:31.072Z,12.81
2022-09-09T01:09:23.156Z,12.77
2022-09-09T01:12:03.051Z,12.78
2022-09-09T01:14:36.408Z,12.73
2022-09-09T01:17:20.629Z,12.79
2022-09-09T01:20:05.956Z,12.70
2022-09-09T01:23:00.327Z,12.58
2022-09-09T01:25:49.958Z,12.63
2022-09-09T01:28:27.560Z,12.57
2022-09-09T01:30:55.329Z,12.56
2022-09-09T01:33:22.455Z,12.54
2022-09-09T01:35:57.252Z,12.61
2022-09-09T01:38:25.631Z,12.60
2022-09-09T01:40:54.185Z,12.69
2022-09-09T01:43:25.973Z,12.73
2022-09-09T01:45:56.956Z,12.72
2022-09-09T01:48:26.549Z,12.81
2022-09-09T01:50:53.145Z,12.76
2022-09-09T01:53:22.104Z,12.83
2022-09-09T01:56:05.906Z,12.83
2022-09-09T01:59:00.512Z,12.81
2022-09-09T02:01:54.839Z,12.79
2022-09-09T02:04:32.305Z,12.80
2022-09-09T02:06:58.974Z,12.73
2022-09-09T02:09:27.475Z,12.68
2022-09-09T02:12:02.984Z,12.68
2022-09-09T02:14:38.581Z,12.68
2022-09-09T02:17:13.269Z,12.72
2022-09-09T02:19:50.255Z,12.80
2022-09-09T02:22:20.700Z,12.76
2022-09-09T02:24:48.643Z,12.81
2022-09-09T02:27:17.494Z,12.77
2022-09-09T02:29:45.903Z,12.81
2022-09-09T02:32:17.293Z,12.77
2022-09-09T02:34:52.997Z,12.76
2022-09-09T02:37:24.764Z,12.75
2022-09-09T02:39:51.659Z,12.75
2022-09-09T02:42:18.403Z,12.71
2022-09-09T02:44:45.817Z,12.78
2022-09-09T02:47:33.828Z,12.78
2022-09-09T02:50:13.213Z,12.76
2022-09-09T02:52:44.791Z,12.83
2022-09-09T02:55:22.622Z,12.83
2022-09-09T02:57:50.987Z,12.85
2022-09-09T03:00:23.867Z,12.89
2022-09-09T03:02:50.673Z,12.94
2022-09-09T03:05:17.390Z,12.90
2022-09-09T03:07:43.969Z,12.94
2022-09-09T03:10:11.666Z,12.84
2022-09-09T03:12:38.409Z,12.90
2022-09-09T03:15:05.803Z,12.91
2022-09-09T03:17:32.579Z,13.00
2022-09-09T03:19:59.774Z,12.96
2022-09-09T03:22:26.751Z,13.02
2022-09-09T03:24:53.371Z,12.97
2022-09-09T03:27:20.703Z,12.96
2022-09-09T03:29:47.747Z,12.96
2022-09-09T03:32:14.484Z,12.95
2022-09-09T03:34:41.652Z,13.01
2022-09-09T03:37:08.293Z,12.92
2022-09-09T03:39:34.917Z,12.95
2022-09-09T03:42:04.960Z,12.87
2022-09-09T03:44:31.780Z,12.95
2022-09-09T03:47:01.316Z,12.92
2022-09-09T03:49:29.640Z,12.96
2022-09-09T03:51:58.520Z,12.94
2022-09-09T03:54:26.282Z,12.86
2022-09-09T03:56:52.905Z,12.83
2022-09-09T03:59:19.637Z,12.88
2022-09-09T04:01:46.738Z,12.88
2022-09-09T04:04:14.611Z,12.88
2022-09-09T04:06:41.483Z,12.82
2022-09-09T04:09:08.240Z,12.77
2022-09-09T04:11:35.228Z,12.69
2022-09-09T04:14:01.968Z,12.75
2022-09-09T04:16:28.657Z,12.64
2022-09-09T04:18:55.327Z,12.63
2022-09-09T04:21:22.562Z,12.61
2022-09-09T04:23:49.803Z,12.55
2022-09-09T04:26:16.529Z,12.64
2022-09-09T04:28:43.340Z,12.54
2022-09-09T04:31:21.249Z,12.49
2022-09-09T04:33:48.235Z,12.52
2022-09-09T04:36:15.414Z,12.53
2022-09-09T04:38:42.381Z,12.58
2022-09-09T04:41:09.095Z,12.60
2022-09-09T04:43:35.820Z,12.62
2022-09-09T04:46:02.593Z,12.51
2022-09-09T04:48:29.541Z,12.52
2022-09-09T04:51:00.275Z,12.58
2022-09-09T04:53:27.356Z,12.59
2022-09-09T04:56:03.356Z,12.57
2022-09-09T04:58:30.404Z,12.56
2022-09-09T05:01:05.698Z,12.59
2022-09-09T05:03:32.432Z,12.64
2022-09-09T05:06:08.184Z,12.70
2022-09-09T05:08:35.611Z,12.67
2022-09-09T05:11:02.716Z,12.72
2022-09-09T05:13:32.593Z,12.72
2022-09-09T05:15:59.658Z,12.66
2022-09-09T05:18:26.367Z,12.68
2022-09-09T05:20:53.399Z,12.73
2022-09-09T05:23:20.326Z,12.64
2022-09-09T05:25:56.588Z,12.60
2022-09-09T05:28:24.065Z,12.66
2022-09-09T05:31:09.274Z,12.66
2022-09-09T05:33:37.188Z,12.64
2022-09-09T05:36:07.805Z,12.74
2022-09-09T05:38:35.190Z,12.66
2022-09-09T05:41:03.776Z,12.62
2022-09-09T05:43:30.578Z,12.75
2022-09-09T05:46:05.368Z,12.70
2022-09-09T05:48:34.323Z,12.74
2022-09-09T05:51:03.702Z,12.72
2022-09-09T05:53:37.936Z,12.75
2022-09-09T05:56:13.894Z,12.68
2022-09-09T05:58:41.052Z,12.59
2022-09-09T06:01:15.048Z,12.64
2022-09-09T06:03:43.844Z,12.66
2022-09-09T06:06:16.182Z,12.68
2022-09-09T06:08:47.024Z,12.63
2022-09-09T06:11:32.421Z,12.61
2022-09-09T06:13:59.625Z,12.64
2022-09-09T06:16:28.800Z,12.68
2022-09-09T06:18:57.439Z,12.71
2022-09-09T06:21:31.139Z,12.72
2022-09-09T06:24:00.820Z,12.78
2022-09-09T06:26:34.375Z,12.79
2022-09-09T06:29:08.222Z,12.77
2022-09-09T06:31:38.323Z,12.77
2022-09-09T06:34:10.056Z,12.87
2022-09-09T06:36:39.556Z,12.93
2022-09-09T06:39:14.834Z,13.30
2022-09-09T06:41:45.590Z,13.73
2022-09-09T06:44:16.270Z,13.61
2022-09-09T06:46:42.911Z,13.53
2022-09-09T06:49:10.759Z,13.51
2022-09-09T06:51:46.114Z,13.46
2022-09-09T06:54:13.870Z,13.38
2022-09-09T06:56:43.173Z,13.40
2022-09-09T06:59:10.781Z,13.29
2022-09-09T07:01:50.306Z,13.35
2022-09-09T07:04:19.567Z,13.46
2022-09-09T07:06:53.469Z,13.30
2022-09-09T07:09:21.907Z,13.33
2022-09-09T07:11:53.782Z,13.28
2022-09-09T07:14:20.971Z,13.24
2022-09-09T07:16:48.104Z,13.34
2022-09-09T07:19:27.063Z,13.42
2022-09-09T07:21:53.723Z,13.30
2022-09-09T07:24:21.991Z,13.46
2022-09-09T07:26:51.958Z,13.42
2022-09-09T07:29:20.947Z,13.59
2022-09-09T07:31:57.415Z,13.55
2022-09-09T07:34:23.997Z,13.58
2022-09-09T07:36:52.149Z,13.63
2022-09-09T07:39:22.316Z,13.57
2022-09-09T07:41:53.788Z,13.57
2022-09-09T07:44:23.754Z,13.46
2022-09-09T07:46:55.674Z,13.35
2022-09-09T07:49:28.476Z,13.30
2022-09-09T07:51:57.761Z,13.25
2022-09-09T07:54:24.834Z,13.15
2022-09-09T07:56:54.161Z,13.10
2022-09-09T07:59:20.957Z,13.12
2022-09-09T08:01:55.947Z,13.26
2022-09-09T08:04:25.102Z,13.29
2022-09-09T08:06:56.839Z,13.35
2022-09-09T08:09:30.068Z,13.39
2022-09-09T08:12:00.493Z,13.45
2022-09-09T08:14:27.340Z,13.34
2022-09-09T08:16:58.292Z,13.52
2022-09-09T08:19:25.748Z,13.55
2022-09-09T08:21:53.543Z,13.68
2022-09-09T08:24:20.756Z,13.93
2022-09-09T08:26:52.662Z,14.08
2022-09-09T08:29:19.565Z,14.32
2022-09-09T08:31:52.349Z,14.45
2022-09-09T08:34:21.148Z,14.48
2022-09-09T08:36:49.236Z,14.38
2022-09-09T08:39:18.484Z,14.16
2022-09-09T08:42:01.668Z,14.06
2022-09-09T08:45:07.154Z,13.80
2022-09-09T08:48:11.510Z,13.89
2022-09-09T08:50:39.742Z,13.85
2022-09-09T08:53:09.534Z,13.97
2022-09-09T08:55:52.304Z,14.15
2022-09-09T08:58:22.396Z,14.09
2022-09-09T09:01:12.751Z,14.24
2022-09-09T09:03:48.936Z,14.19
2022-09-09T09:06:18.757Z,14.14
2022-09-09T09:08:49.267Z,14.16
2022-09-09T09:11:15.882Z,14.24
2022-09-09T09:14:04.150Z,14.35
2022-09-09T09:16:56.925Z,14.51
2022-09-09T09:19:26.005Z,14.44
2022-09-09T09:22:22.113Z,14.37
2022-09-09T09:25:31.902Z,14.37
2022-09-09T09:28:07.300Z,14.46
2022-09-09T09:30:43.184Z,14.49
2022-09-09T09:33:18.813Z,14.33
2022-09-09T09:35:45.440Z,14.48
2022-09-09T09:41:34.651Z,14.45
2022-09-09T09:44:09.898Z,14.44
2022-09-09T09:46:36.557Z,14.49
2022-09-09T09:49:06.635Z,14.61
2022-09-09T09:51:34.905Z,14.71
2022-09-09T09:54:19.585Z,14.63
2022-09-09T09:56:47.139Z,14.80
2022-09-09T09:59:41.376Z,15.03
2022-09-09T10:02:14.061Z,15.07
2022-09-09T10:04:42.833Z,15.11
2022-09-09T10:07:24.501Z,15.20
2022-09-09T10:09:55.859Z,15.01
2022-09-09T10:12:49.438Z,15.11
2022-09-09T10:15:22.338Z,15.17
2022-09-09T10:18:05.216Z,15.29
2022-09-09T10:21:01.408Z,15.55
2022-09-09T10:23:59.141Z,15.64
2022-09-09T10:26:51.140Z,15.64
2022-09-09T10:29:35.702Z,15.76
2022-09-09T10:32:23.467Z,16.15
2022-09-09T10:35:06.081Z,16.03
2022-09-09T10:37:37.107Z,16.05
2022-09-09T10:40:39.794Z,16.06
2022-09-09T10:43:51.293Z,16.10
2022-09-09T10:46:37.128Z,16.23
2022-09-09T10:49:09.725Z,16.10
2022-09-09T10:51:48.938Z,16.26
2022-09-09T10:54:30.518Z,16.70
2022-09-09T10:57:04.919Z,16.92
2022-09-09T10:59:39.723Z,16.75
2022-09-09T11:02:29.552Z,16.76
2022-09-09T11:05:04.623Z,16.98
2022-09-09T11:07:57.122Z,16.75
2022-09-09T11:10:29.235Z,16.45
2022-09-09T11:13:02.168Z,16.40
2022-09-09T11:15:51.286Z,16.46
2022-09-09T11:18:26.395Z,16.61
2022-09-09T11:21:02.026Z,16.94
2022-09-09T11:23:46.750Z,16.61
2022-09-09T11:26:24.182Z,17.19
2022-09-09T11:29:35.457Z,17.18
2022-09-09T11:32:29.953Z,17.36
2022-09-09T11:35:23.683Z,17.13
2022-09-09T11:38:13.200Z,17.58
2022-09-09T11:40:40.583Z,17.54
2022-09-09T11:43:17.269Z,17.58
2022-09-09T11:45:58.735Z,16.84
2022-09-09T11:48:33.355Z,16.65
2022-09-09T11:51:11.038Z,16.15
2022-09-09T11:53:55.699Z,15.05
2022-09-09T11:56:51.804Z,14.35
2022-09-09T11:59:22.940Z,13.91
2022-09-09T12:02:11.343Z,13.83
2022-09-09T12:04:59.800Z,13.62
2022-09-09T12:07:33.676Z,13.27
2022-09-09T12:10:21.569Z,13.14
2022-09-09T12:12:48.336Z,13.16
2022-09-09T12:15:29.972Z,13.27
2022-09-09T12:18:03.292Z,13.36
2022-09-09T12:20:37.272Z,13.63
2022-09-09T12:23:14.330Z,13.89
2022-09-09T12:25:50.132Z,14.01
2022-09-09T12:28:21.636Z,14.38
2022-09-09T12:31:02.931Z,14.96
2022-09-09T12:33:36.739Z,15.21
2022-09-09T12:36:07.371Z,15.45
2022-09-09T12:38:41.800Z,15.18
2022-09-09T12:41:24.685Z,14.81
2022-09-09T12:43:52.031Z,14.83
2022-09-09T12:46:37.777Z,14.87
2022-09-09T12:49:05.724Z,15.05
2022-09-09T12:51:34.300Z,15.27
2022-09-09T12:54:01.689Z,15.03
2022-09-09T12:56:31.965Z,15.28
2022-09-09T12:58:59.715Z,14.91
2022-09-09T13:01:29.609Z,14.87
2022-09-09T13:03:57.388Z,14.51
2022-09-09T13:06:29.037Z,14.36
2022-09-09T13:09:00.223Z,14.29
2022-09-09T13:11:40.658Z,14.27
2022-09-09T13:14:07.641Z,14.17
2022-09-09T13:16:42.595Z,14.14
2022-09-09T13:19:15.330Z,14.16
2022-09-09T13:21:42.093Z,14.23
2022-09-09T13:24:29.575Z,14.22
2022-09-09T13:27:03.015Z,14.21
2022-09-09T13:29:30.602Z,14.12
2022-09-09T13:32:16.428Z,14.16
2022-09-09T13:34:54.430Z,14.29
2022-09-09T13:37:37.371Z,14.39
2022-09-09T13:40:07.376Z,14.42
2022-09-09T13:42:39.173Z,14.57
2022-09-09T13:45:06.326Z,14.57
2022-09-09T13:47:35.637Z,14.65
2022-09-09T13:50:26.902Z,14.86
2022-09-09T13:52:55.588Z,14.79
2022-09-09T13:55:24.755Z,15.18
2022-09-09T13:57:57.018Z,15.38
2022-09-09T14:00:25.218Z,15.70
2022-09-09T14:02:52.375Z,15.66
2022-09-09T14:05:20.177Z,15.69
2022-09-09T14:07:51.268Z,15.58
2022-09-09T14:10:19.970Z,15.72
2022-09-09T14:12:47.717Z,15.62
2022-09-09T14:15:16.161Z,15.54
2022-09-09T14:17:43.316Z,15.65
2022-09-09T14:20:12.866Z,15.74
2022-09-09T14:22:40.414Z,15.65
2022-09-09T14:25:07.929Z,16.13
2022-09-09T14:27:35.054Z,16.41
2022-09-09T14:30:01.938Z,16.74
2022-09-09T14:32:28.849Z,16.53
2022-09-09T14:34:55.502Z,16.46
2022-09-09T14:37:22.255Z,16.06
2022-09-09T14:39:51.807Z,15.93
2022-09-09T14:42:19.131Z,15.68
2022-09-09T14:44:45.750Z,15.63
2022-09-09T14:47:12.531Z,15.22
2022-09-09T14:49:41.543Z,14.69
2022-09-09T14:52:10.870Z,14.34
2022-09-09T14:54:37.500Z,14.25
2022-09-09T14:57:06.547Z,14.59
2022-09-09T14:59:33.245Z,14.80
2022-09-09T15:02:02.042Z,14.65
2022-09-09T15:04:28.832Z,14.56
2022-09-09T15:06:56.677Z,14.59
2022-09-09T15:09:23.876Z,14.61
2022-09-09T15:11:50.662Z,14.38
2022-09-09T15:14:18.618Z,14.29
2022-09-09T15:16:46.892Z,14.35
2022-09-09T15:19:13.529Z,14.41
2022-09-09T15:21:40.481Z,14.36
2022-09-09T15:24:09.240Z,14.41
2022-09-09T15:26:40.447Z,14.41
2022-09-09T15:29:08.525Z,14.34
2022-09-09T15:31:36.093Z,14.31
2022-09-09T15:34:07.563Z,14.60
2022-09-09T15:36:42.677Z,14.65
2022-09-09T15:39:16.717Z,14.78
2022-09-09T15:41:45.025Z,15.06
2022-09-09T15:44:13.775Z,15.10
2022-09-09T15:46:50.074Z,15.08
2022-09-09T15:49:19.749Z,15.50
2022-09-09T15:51:51.468Z,15.32
2022-09-09T15:54:19.860Z,15.39
2022-09-09T15:56:49.843Z,15.34
2022-09-09T15:59:17.124Z,15.35
2022-09-09T16:01:45.107Z,15.33
2022-09-09T16:04:16.377Z,15.41
2022-09-09T16:06:43.542Z,15.38
2022-09-09T16:09:11.258Z,15.69
2022-09-09T16:11:40.239Z,15.69
2022-09-09T16:14:07.819Z,15.56
2022-09-09T16:16:36.375Z,15.49
2022-09-09T16:19:13.751Z,14.90
2022-09-09T16:21:43.161Z,14.80
2022-09-09T16:24:12.871Z,14.54
2022-09-09T16:26:42.364Z,14.50
2022-09-09T16:29:09.886Z,14.46
2022-09-09T16:31:37.024Z,14.37
2022-09-09T16:34:06.253Z,14.14
2022-09-09T16:36:37.808Z,14.08
2022-09-09T16:39:07.535Z,14.06
2022-09-09T16:41:35.156Z,14.11
2022-09-09T16:44:07.605Z,14.13
2022-09-09T16:46:37.489Z,14.11
2022-09-09T16:49:07.436Z,14.24
2022-09-09T16:51:48.258Z,14.14
2022-09-09T16:54:16.403Z,14.41
2022-09-09T16:56:47.361Z,14.28
2022-09-09T16:59:17.581Z,14.33
2022-09-09T17:01:45.966Z,14.27
2022-09-09T17:04:21.544Z,14.30
2022-09-09T17:06:52.686Z,14.22
2022-09-09T17:09:20.826Z,14.14
2022-09-09T17:11:48.909Z,13.96
2022-09-09T17:14:18.257Z,14.03
2022-09-09T17:16:47.265Z,13.98
2022-09-09T17:19:14.813Z,13.98
2022-09-09T17:22:05.754Z,13.95
2022-09-09T17:24:30.384Z,13.75
2022-09-09T17:26:59.120Z,13.79
2022-09-09T17:29:26.361Z,13.74
2022-09-09T17:31:53.313Z,13.77
2022-09-09T17:34:20.068Z,13.75
2022-09-09T17:36:50.982Z,13.61
2022-09-09T17:39:17.678Z,13.66
2022-09-09T17:41:44.300Z,13.52
2022-09-09T17:44:11.410Z,13.53
2022-09-09T17:46:41.574Z,13.51
2022-09-09T17:49:13.153Z,13.49
2022-09-09T17:51:42.719Z,13.60
2022-09-09T17:54:13.285Z,13.67
2022-09-09T17:56:45.254Z,13.73
2022-09-09T17:59:13.598Z,13.67
2022-09-09T18:01:44.892Z,13.68
2022-09-09T18:04:14.564Z,13.78
2022-09-09T18:06:44.204Z,13.71
2022-09-09T18:09:16.588Z,13.64
2022-09-09T18:11:46.580Z,13.50
2022-09-09T18:14:18.119Z,13.49
2022-09-09T18:16:45.033Z,13.47
2022-09-09T18:19:14.010Z,13.41
2022-09-09T18:21:43.203Z,13.37
2022-09-09T18:24:11.920Z,13.42
2022-09-09T18:26:40.521Z,13.44
2022-09-09T18:29:10.521Z,13.45
2022-09-09T18:31:37.914Z,13.47
2022-09-09T18:34:06.744Z,13.35
2022-09-09T18:36:40.724Z,13.38
2022-09-09T18:39:08.950Z,13.45
2022-09-09T18:41:38.521Z,13.45
2022-09-09T18:44:09.536Z,13.50
2022-09-09T18:46:37.773Z,13.49
2022-09-09T18:49:05.959Z,13.41
2022-09-09T18:51:37.284Z,13.37
2022-09-09T18:54:10.833Z,13.33
2022-09-09T18:56:37.683Z,13.32
2022-09-09T18:59:06.790Z,13.30
2022-09-09T19:01:35.692Z,13.40
2022-09-09T19:04:04.805Z,13.36
2022-09-09T19:06:32.432Z,13.43
2022-09-09T19:09:03.165Z,13.44
2022-09-09T19:11:30.639Z,13.39
2022-09-09T19:14:00.065Z,13.39
2022-09-09T19:16:29.740Z,13.32
2022-09-09T19:19:00.124Z,13.24
2022-09-09T19:21:30.636Z,13.23
2022-09-09T19:24:00.940Z,13.25
2022-09-09T19:26:33.711Z,13.22
2022-09-09T19:29:02.809Z,13.23
2022-09-09T19:31:30.331Z,13.27
2022-09-09T19:33:59.575Z,13.26
2022-09-09T19:36:29.761Z,13.28
2022-09-09T19:38:56.531Z,13.38
2022-09-09T19:41:26.597Z,13.32
2022-09-09T19:43:57.375Z,13.29
2022-09-09T19:46:23.971Z,13.31
2022-09-09T19:48:50.950Z,13.31
2022-09-09T19:51:20.560Z,13.18
2022-09-09T19:53:53.377Z,13.12
2022-09-09T19:56:23.678Z,13.05
2022-09-09T19:58:50.972Z,13.03
2022-09-09T20:01:25.496Z,12.98
2022-09-09T20:03:54.508Z,12.89
2022-09-09T20:06:30.992Z,12.88
2022-09-09T20:09:01.131Z,12.78
2022-09-09T20:11:38.408Z,12.69
2022-09-09T20:14:08.650Z,12.66
2022-09-09T20:16:38.647Z,12.55
2022-09-09T20:19:17.572Z,12.54
2022-09-09T20:21:58.718Z,12.41
2022-09-09T20:24:26.718Z,12.35
2022-09-09T20:26:54.037Z,12.27
2022-09-09T20:29:20.976Z,12.25
2022-09-09T20:31:48.695Z,12.27
2022-09-09T20:34:19.194Z,12.21
2022-09-09T20:36:47.133Z,12.20
2022-09-09T20:39:16.794Z,12.18
2022-09-09T20:41:45.518Z,12.14
2022-09-09T20:44:21.831Z,12.18
2022-09-09T20:46:55.669Z,12.14
2022-09-09T20:49:24.265Z,12.14
2022-09-09T20:51:52.076Z,12.21
2022-09-09T20:54:23.602Z,12.26
2022-09-09T20:56:51.749Z,12.23
2022-09-09T20:59:21.709Z,12.24
2022-09-09T21:01:48.785Z,12.22
2022-09-09T21:04:17.717Z,12.26
2022-09-09T21:06:45.089Z,12.21
2022-09-09T21:09:12.087Z,12.36
2022-09-09T21:11:38.703Z,12.46
2022-09-09T21:14:06.145Z,12.50
2022-09-09T21:16:32.828Z,12.62
2022-09-09T21:18:59.747Z,12.64
2022-09-09T21:21:27.231Z,12.68
2022-09-09T21:23:57.267Z,12.66
2022-09-09T21:26:24.684Z,12.68
2022-09-09T21:28:51.472Z,12.74
2022-09-09T21:31:19.517Z,12.69
2022-09-09T21:33:46.853Z,12.74
2022-09-09T21:36:15.193Z,12.77
2022-09-09T21:38:43.779Z,12.79
2022-09-09T21:41:15.816Z,12.80
2022-09-09T21:43:44.203Z,12.81
2022-09-09T21:46:13.515Z,12.91
2022-09-09T21:48:40.307Z,12.90
2022-09-09T21:51:13.163Z,12.87
2022-09-09T21:53:40.171Z,12.78
2022-09-09T21:56:12.846Z,12.92
2022-09-09T21:58:41.162Z,12.96
2022-09-09T22:01:16.848Z,12.88
2022-09-09T22:03:44.660Z,12.87
2022-09-09T22:06:14.340Z,12.86
2022-09-09T22:08:40.938Z,12.78
2022-09-09T22:11:10.356Z,12.82
2022-09-09T22:13:42.320Z,12.87
2022-09-09T22:16:12.561Z,12.77
2022-09-09T22:18:39.894Z,12.81
2022-09-09T22:21:11.431Z,12.71
2022-09-09T22:23:38.310Z,12.65
2022-09-09T22:26:05.952Z,12.31
2022-09-09T22:28:34.310Z,12.06
2022-09-09T22:31:01.545Z,11.87
2022-09-09T22:33:28.215Z,11.94
2022-09-09T22:35:54.956Z,11.88
2022-09-09T22:38:22.482Z,11.74
2022-09-09T22:40:49.699Z,11.76
2022-09-09T22:43:19.706Z,11.70
2022-09-09T22:45:46.831Z,11.68
2022-09-09T22:48:15.277Z,11.71
2022-09-09T22:50:42.727Z,11.73
2022-09-09T22:53:13.759Z,11.77
2022-09-09T22:55:41.275Z,11.76
2022-09-09T22:58:08.089Z,11.82
2022-09-09T23:00:35.207Z,11.83
2022-09-09T23:03:01.838Z,11.78
2022-09-09T23:05:28.436Z,11.73
2022-09-09T23:07:58.633Z,11.76
2022-09-09T23:10:27.292Z,11.84
2022-09-09T23:12:54.307Z,11.87
2022-09-09T23:15:20.990Z,11.91
2022-09-09T23:17:47.665Z,11.95
2022-09-09T23:20:14.216Z,11.94
2022-09-09T23:22:41.210Z,11.99
2022-09-09T23:25:08.170Z,12.01
2022-09-09T23:27:37.386Z,12.07
2022-09-09T23:30:07.275Z,12.14
2022-09-09T23:32:34.104Z,12.21
2022-09-09T23:35:01.005Z,12.25
2022-09-09T23:37:27.655Z,12.24
2022-09-09T23:39:54.718Z,12.26
2022-09-09T23:42:21.371Z,12.23
2022-09-09T23:44:48.430Z,12.35
2022-09-09T23:47:15.033Z,12.33
2022-09-09T23:49:41.599Z,12.34
2022-09-09T23:52:08.895Z,12.25
2022-09-09T23:54:35.760Z,12.27
2022-09-09T23:57:03.847Z,12.31
2022-09-09T23:59:31.489Z,12.25
